sensor_id;sensor_type;location;lat;lon;timestamp;pressure;altitude;pressure_sealevel;temperature;humidity
5298;BME280;14738;42.668;23.250;2023-04-16T00:00:20;48346.63;;;-141.90;46.87
5298;BME280;14738;42.668;23.250;2023-04-16T00:02:46;48378.38;;;-141.90;47.14
5298;BME280;14738;42.668;23.250;2023-04-16T00:05:12;48372.44;;;-141.90;47.37
5298;BME280;14738;42.668;23.250;2023-04-16T00:07:37;48346.63;;;-141.90;48.38
5298;BME280;14738;42.668;23.250;2023-04-16T00:10:03;48354.56;;;-141.90;48.02
5298;BME280;14738;42.668;23.250;2023-04-16T00:12:29;48386.34;;;-141.90;48.03
5298;BME280;14738;42.668;23.250;2023-04-16T00:14:55;48354.56;;;-141.90;48.30
5298;BME280;14738;42.668;23.250;2023-04-16T00:17:20;48330.75;;;-141.90;48.00
5298;BME280;14738;42.668;23.250;2023-04-16T00:19:45;48338.69;;;-141.90;48.43
5298;BME280;14738;42.668;23.250;2023-04-16T00:22:11;48332.72;;;-141.90;48.20
5298;BME280;14738;42.668;23.250;2023-04-16T00:24:36;48332.72;;;-141.90;48.54
5298;BME280;14738;42.668;23.250;2023-04-16T00:27:01;48378.38;;;-141.90;48.35
5298;BME280;14738;42.668;23.250;2023-04-16T00:29:27;48366.47;;;-141.90;48.07
5298;BME280;14738;42.668;23.250;2023-04-16T00:31:53;48380.38;;;-141.90;47.64
5298;BME280;14738;42.668;23.250;2023-04-16T00:34:18;48354.56;;;-141.90;47.65
5298;BME280;14738;42.668;23.250;2023-04-16T00:36:43;48350.59;;;-141.90;48.21
5298;BME280;14738;42.668;23.250;2023-04-16T00:39:09;48358.53;;;-141.90;49.05
5298;BME280;14738;42.668;23.250;2023-04-16T00:41:34;48370.44;;;-141.90;48.69
5298;BME280;14738;42.668;23.250;2023-04-16T00:44:00;48356.56;;;-141.90;48.45
5298;BME280;14738;42.668;23.250;2023-04-16T00:46:25;48358.53;;;-141.90;48.82
5298;BME280;14738;42.668;23.250;2023-04-16T00:48:54;48342.66;;;-141.90;49.71
5298;BME280;14738;42.668;23.250;2023-04-16T00:51:20;48362.50;;;-141.90;49.31
5298;BME280;14738;42.668;23.250;2023-04-16T00:53:46;48346.63;;;-141.90;49.31
5298;BME280;14738;42.668;23.250;2023-04-16T00:56:14;48370.44;;;-141.90;49.40
5298;BME280;14738;42.668;23.250;2023-04-16T00:58:40;48358.53;;;-141.90;48.97
5298;BME280;14738;42.668;23.250;2023-04-16T01:01:05;48360.53;;;-141.90;48.72
5298;BME280;14738;42.668;23.250;2023-04-16T01:03:39;48366.47;;;-141.90;49.36
5298;BME280;14738;42.668;23.250;2023-04-16T01:06:05;48338.69;;;-141.90;49.25
5298;BME280;14738;42.668;23.250;2023-04-16T01:08:31;48406.19;;;-141.90;49.69
5298;BME280;14738;42.668;23.250;2023-04-16T01:10:56;48362.50;;;-141.90;49.24
5298;BME280;14738;42.668;23.250;2023-04-16T01:13:22;48354.56;;;-141.90;50.62
5298;BME280;14738;42.668;23.250;2023-04-16T01:15:47;48390.31;;;-141.90;50.54
5298;BME280;14738;42.668;23.250;2023-04-16T01:18:17;48344.63;;;-141.90;51.05
5298;BME280;14738;42.668;23.250;2023-04-16T01:20:43;48402.22;;;-141.90;50.98
5298;BME280;14738;42.668;23.250;2023-04-16T01:23:08;48388.31;;;-141.90;51.10
5298;BME280;14738;42.668;23.250;2023-04-16T01:25:34;48386.34;;;-141.90;51.73
5298;BME280;14738;42.668;23.250;2023-04-16T01:27:59;48390.31;;;-141.90;52.12
5298;BME280;14738;42.668;23.250;2023-04-16T01:30:25;48382.34;;;-141.90;52.09
5298;BME280;14738;42.668;23.250;2023-04-16T01:32:50;48368.47;;;-141.90;52.64
5298;BME280;14738;42.668;23.250;2023-04-16T01:35:15;48352.59;;;-141.90;52.97
5298;BME280;14738;42.668;23.250;2023-04-16T01:37:42;48350.59;;;-141.90;52.95
5298;BME280;14738;42.668;23.250;2023-04-16T01:40:08;48382.34;;;-141.90;52.51
5298;BME280;14738;42.668;23.250;2023-04-16T01:42:33;48382.34;;;-141.90;51.85
5298;BME280;14738;42.668;23.250;2023-04-16T01:44:59;48358.53;;;-141.90;51.50
5298;BME280;14738;42.668;23.250;2023-04-16T01:47:30;48382.34;;;-141.90;51.94
5298;BME280;14738;42.668;23.250;2023-04-16T01:49:55;48394.28;;;-141.90;51.97
5298;BME280;14738;42.668;23.250;2023-04-16T01:52:21;48374.41;;;-141.90;52.56
5298;BME280;14738;42.668;23.250;2023-04-16T01:54:46;48386.34;;;-141.90;53.05
5298;BME280;14738;42.668;23.250;2023-04-16T01:57:12;48388.31;;;-141.90;53.27
5298;BME280;14738;42.668;23.250;2023-04-16T01:59:37;48398.25;;;-141.90;54.06
5298;BME280;14738;42.668;23.250;2023-04-16T02:02:08;48364.50;;;-141.90;54.23
5298;BME280;14738;42.668;23.250;2023-04-16T02:04:36;48392.28;;;-141.90;53.96
5298;BME280;14738;42.668;23.250;2023-04-16T02:07:03;48364.50;;;-141.90;53.76
5298;BME280;14738;42.668;23.250;2023-04-16T02:09:29;48356.56;;;-141.90;53.76
5298;BME280;14738;42.668;23.250;2023-04-16T02:11:54;48394.28;;;-141.90;53.20
5298;BME280;14738;42.668;23.250;2023-04-16T02:14:19;48394.28;;;-141.90;53.59
5298;BME280;14738;42.668;23.250;2023-04-16T02:16:46;48378.38;;;-141.90;54.24
5298;BME280;14738;42.668;23.250;2023-04-16T02:19:11;48404.19;;;-141.90;54.35
5298;BME280;14738;42.668;23.250;2023-04-16T02:21:36;48378.38;;;-141.90;53.88
5298;BME280;14738;42.668;23.250;2023-04-16T02:24:02;48364.50;;;-141.90;54.13
5298;BME280;14738;42.668;23.250;2023-04-16T02:26:27;48350.59;;;-141.90;54.36
5298;BME280;14738;42.668;23.250;2023-04-16T02:28:53;48390.31;;;-141.90;53.41
5298;BME280;14738;42.668;23.250;2023-04-16T02:31:19;48394.28;;;-141.90;54.77
5298;BME280;14738;42.668;23.250;2023-04-16T02:33:46;48352.59;;;-141.90;54.42
5298;BME280;14738;42.668;23.250;2023-04-16T02:36:11;48360.53;;;-141.90;54.50
5298;BME280;14738;42.668;23.250;2023-04-16T02:38:37;48358.53;;;-141.90;54.77
5298;BME280;14738;42.668;23.250;2023-04-16T02:41:02;48388.31;;;-141.90;54.49
5298;BME280;14738;42.668;23.250;2023-04-16T02:43:28;48386.34;;;-141.90;54.78
5298;BME280;14738;42.668;23.250;2023-04-16T02:45:53;48398.25;;;-141.90;54.83
5298;BME280;14738;42.668;23.250;2023-04-16T02:48:18;48380.38;;;-141.90;55.85
5298;BME280;14738;42.668;23.250;2023-04-16T02:50:44;48354.56;;;-141.90;55.99
5298;BME280;14738;42.668;23.250;2023-04-16T02:53:09;48362.50;;;-141.90;55.87
5298;BME280;14738;42.668;23.250;2023-04-16T02:55:35;48366.47;;;-141.90;56.07
5298;BME280;14738;42.668;23.250;2023-04-16T02:58:00;48394.28;;;-141.90;56.08
5298;BME280;14738;42.668;23.250;2023-04-16T03:00:26;48358.53;;;-141.90;56.06
5298;BME280;14738;42.668;23.250;2023-04-16T03:02:51;48366.47;;;-141.90;55.87
5298;BME280;14738;42.668;23.250;2023-04-16T03:05:17;48362.50;;;-141.90;55.62
5298;BME280;14738;42.668;23.250;2023-04-16T03:07:42;48390.31;;;-141.90;55.60
5298;BME280;14738;42.668;23.250;2023-04-16T03:10:08;48368.47;;;-141.90;56.33
5298;BME280;14738;42.668;23.250;2023-04-16T03:12:34;48398.25;;;-141.90;56.56
5298;BME280;14738;42.668;23.250;2023-04-16T03:15:00;48390.31;;;-141.90;56.42
5298;BME280;14738;42.668;23.250;2023-04-16T03:17:25;48386.34;;;-141.90;56.21
5298;BME280;14738;42.668;23.250;2023-04-16T03:19:51;48386.34;;;-141.90;55.97
5298;BME280;14738;42.668;23.250;2023-04-16T03:22:16;48374.41;;;-141.90;55.81
5298;BME280;14738;42.668;23.250;2023-04-16T03:24:42;48368.47;;;-141.90;56.56
5298;BME280;14738;42.668;23.250;2023-04-16T03:27:07;48402.22;;;-141.90;57.00
5298;BME280;14738;42.668;23.250;2023-04-16T03:29:35;48354.56;;;-141.90;56.68
5298;BME280;14738;42.668;23.250;2023-04-16T03:32:01;48394.28;;;-141.90;56.61
5298;BME280;14738;42.668;23.250;2023-04-16T03:34:26;48392.28;;;-141.90;56.17
5298;BME280;14738;42.668;23.250;2023-04-16T03:36:51;48358.53;;;-141.90;55.36
5298;BME280;14738;42.668;23.250;2023-04-16T03:39:17;48372.44;;;-141.90;56.29
5298;BME280;14738;42.668;23.250;2023-04-16T03:41:42;48362.50;;;-141.90;55.81
5298;BME280;14738;42.668;23.250;2023-04-16T03:44:07;48396.25;;;-141.90;55.87
5298;BME280;14738;42.668;23.250;2023-04-16T03:46:33;48384.34;;;-141.90;55.22
5298;BME280;14738;42.668;23.250;2023-04-16T03:48:58;48358.53;;;-141.90;54.57
5298;BME280;14738;42.668;23.250;2023-04-16T03:51:24;48358.53;;;-141.90;53.67
5298;BME280;14738;42.668;23.250;2023-04-16T03:53:50;48370.44;;;-141.90;53.22
5298;BME280;14738;42.668;23.250;2023-04-16T03:56:16;48358.53;;;-141.90;53.69
5298;BME280;14738;42.668;23.250;2023-04-16T03:58:42;48390.31;;;-141.90;54.28
5298;BME280;14738;42.668;23.250;2023-04-16T04:01:07;48378.38;;;-141.90;54.57
5298;BME280;14738;42.668;23.250;2023-04-16T04:03:32;48384.34;;;-141.90;53.95
5298;BME280;14738;42.668;23.250;2023-04-16T04:05:58;48362.50;;;-141.90;53.91
5298;BME280;14738;42.668;23.250;2023-04-16T04:08:23;48366.47;;;-141.90;53.27
5298;BME280;14738;42.668;23.250;2023-04-16T04:10:48;48334.72;;;-141.90;53.51
5298;BME280;14738;42.668;23.250;2023-04-16T04:13:15;48358.53;;;-141.90;53.15
5298;BME280;14738;42.668;23.250;2023-04-16T04:15:40;48378.38;;;-141.90;52.77
5298;BME280;14738;42.668;23.250;2023-04-16T04:18:06;48370.44;;;-141.90;51.65
5298;BME280;14738;42.668;23.250;2023-04-16T04:20:31;48398.25;;;-141.90;51.45
5298;BME280;14738;42.668;23.250;2023-04-16T04:22:56;48368.47;;;-141.90;50.80
5298;BME280;14738;42.668;23.250;2023-04-16T04:25:22;48398.25;;;-141.90;50.89
5298;BME280;14738;42.668;23.250;2023-04-16T04:27:47;48350.59;;;-141.90;50.48
5298;BME280;14738;42.668;23.250;2023-04-16T04:30:13;48366.47;;;-141.90;49.88
5298;BME280;14738;42.668;23.250;2023-04-16T04:32:38;48382.34;;;-141.90;50.27
5298;BME280;14738;42.668;23.250;2023-04-16T04:35:04;48358.53;;;-141.90;50.86
5298;BME280;14738;42.668;23.250;2023-04-16T04:37:30;48362.50;;;-141.90;50.82
5298;BME280;14738;42.668;23.250;2023-04-16T04:39:55;48344.63;;;-141.90;50.86
5298;BME280;14738;42.668;23.250;2023-04-16T04:42:21;48366.47;;;-141.90;51.16
5298;BME280;14738;42.668;23.250;2023-04-16T04:44:46;48370.44;;;-141.90;51.78
5298;BME280;14738;42.668;23.250;2023-04-16T04:47:13;48370.44;;;-141.90;51.90
5298;BME280;14738;42.668;23.250;2023-04-16T04:49:38;48354.56;;;-141.90;51.78
5298;BME280;14738;42.668;23.250;2023-04-16T04:52:04;48358.53;;;-141.90;51.28
5298;BME280;14738;42.668;23.250;2023-04-16T04:54:31;48378.38;;;-141.90;51.05
5298;BME280;14738;42.668;23.250;2023-04-16T04:56:56;48366.47;;;-141.90;50.80
5298;BME280;14738;42.668;23.250;2023-04-16T04:59:23;48358.53;;;-141.90;50.17
5298;BME280;14738;42.668;23.250;2023-04-16T05:01:49;48366.47;;;-141.90;50.74
5298;BME280;14738;42.668;23.250;2023-04-16T05:04:14;48344.63;;;-141.90;50.43
5298;BME280;14738;42.668;23.250;2023-04-16T05:06:40;48380.38;;;-141.90;49.82
5298;BME280;14738;42.668;23.250;2023-04-16T05:09:06;48386.34;;;-141.90;49.48
5298;BME280;14738;42.668;23.250;2023-04-16T05:11:36;48354.56;;;-141.90;48.59
5298;BME280;14738;42.668;23.250;2023-04-16T05:14:02;48372.44;;;-141.90;48.44
5298;BME280;14738;42.668;23.250;2023-04-16T05:16:27;48354.56;;;-141.90;48.59
5298;BME280;14738;42.668;23.250;2023-04-16T05:18:53;48350.59;;;-141.90;47.43
5298;BME280;14738;42.668;23.250;2023-04-16T05:21:20;48366.47;;;-141.90;47.47
5298;BME280;14738;42.668;23.250;2023-04-16T05:23:46;48354.56;;;-141.90;47.23
5298;BME280;14738;42.668;23.250;2023-04-16T05:26:11;48354.56;;;-141.90;46.42
5298;BME280;14738;42.668;23.250;2023-04-16T05:28:36;48364.50;;;-141.90;45.60
5298;BME280;14738;42.668;23.250;2023-04-16T05:31:02;48346.63;;;-141.90;43.30
5298;BME280;14738;42.668;23.250;2023-04-16T05:33:27;48354.56;;;-141.90;43.12
5298;BME280;14738;42.668;23.250;2023-04-16T05:35:53;48366.47;;;-141.90;43.35
5298;BME280;14738;42.668;23.250;2023-04-16T05:38:18;48338.69;;;-141.90;43.77
5298;BME280;14738;42.668;23.250;2023-04-16T05:40:43;48320.81;;;-141.90;43.83
5298;BME280;14738;42.668;23.250;2023-04-16T05:43:09;48354.56;;;-141.90;42.84
5298;BME280;14738;42.668;23.250;2023-04-16T05:45:34;48340.66;;;-141.90;43.01
5298;BME280;14738;42.668;23.250;2023-04-16T05:48:06;48338.69;;;-141.90;41.68
5298;BME280;14738;42.668;23.250;2023-04-16T05:50:32;48362.50;;;-141.90;41.09
5298;BME280;14738;42.668;23.250;2023-04-16T05:52:57;48338.69;;;-141.90;41.36
5298;BME280;14738;42.668;23.250;2023-04-16T05:55:22;48372.44;;;-141.90;40.67
5298;BME280;14738;42.668;23.250;2023-04-16T05:57:48;48334.72;;;-141.90;40.33
5298;BME280;14738;42.668;23.250;2023-04-16T06:00:13;48378.38;;;-141.90;40.80
5298;BME280;14738;42.668;23.250;2023-04-16T06:02:39;48382.34;;;-141.90;40.69
5298;BME280;14738;42.668;23.250;2023-04-16T06:05:04;48354.56;;;-141.90;40.15
5298;BME280;14738;42.668;23.250;2023-04-16T06:07:30;48364.50;;;-141.90;40.29
5298;BME280;14738;42.668;23.250;2023-04-16T06:09:55;48350.59;;;-141.90;40.78
5298;BME280;14738;42.668;23.250;2023-04-16T06:12:20;48346.63;;;-141.90;39.87
5298;BME280;14738;42.668;23.250;2023-04-16T06:14:46;48374.41;;;-141.90;38.99
5298;BME280;14738;42.668;23.250;2023-04-16T06:17:11;48354.56;;;-141.90;38.64
5298;BME280;14738;42.668;23.250;2023-04-16T06:19:36;48350.59;;;-141.90;38.20
5298;BME280;14738;42.668;23.250;2023-04-16T06:22:03;48336.69;;;-141.90;38.02
5298;BME280;14738;42.668;23.250;2023-04-16T06:24:30;48346.63;;;-141.90;36.66
5298;BME280;14738;42.668;23.250;2023-04-16T06:26:56;48340.66;;;-141.90;36.10
5298;BME280;14738;42.668;23.250;2023-04-16T06:29:21;48368.47;;;-141.90;36.78
5298;BME280;14738;42.668;23.250;2023-04-16T06:31:47;48344.63;;;-141.90;35.41
5298;BME280;14738;42.668;23.250;2023-04-16T06:34:13;48332.72;;;-141.90;36.60
5298;BME280;14738;42.668;23.250;2023-04-16T06:36:38;48346.63;;;-141.90;35.71
5298;BME280;14738;42.668;23.250;2023-04-16T06:39:04;48342.66;;;-141.90;36.12
5298;BME280;14738;42.668;23.250;2023-04-16T06:41:29;48368.47;;;-141.90;34.63
5298;BME280;14738;42.668;23.250;2023-04-16T06:43:54;48370.44;;;-141.90;35.46
5298;BME280;14738;42.668;23.250;2023-04-16T06:46:20;48374.41;;;-141.90;34.88
5298;BME280;14738;42.668;23.250;2023-04-16T06:48:45;48376.41;;;-141.90;33.97
5298;BME280;14738;42.668;23.250;2023-04-16T06:51:11;48378.38;;;-141.90;34.09
5298;BME280;14738;42.668;23.250;2023-04-16T06:53:37;48366.47;;;-141.90;33.78
5298;BME280;14738;42.668;23.250;2023-04-16T06:56:03;48352.59;;;-141.90;33.90
5298;BME280;14738;42.668;23.250;2023-04-16T06:58:28;48362.50;;;-141.90;33.81
5298;BME280;14738;42.668;23.250;2023-04-16T07:00:54;48366.47;;;-141.90;33.11
5298;BME280;14738;42.668;23.250;2023-04-16T07:03:19;48364.50;;;-141.90;33.98
5298;BME280;14738;42.668;23.250;2023-04-16T07:05:45;48360.53;;;-141.90;34.59
5298;BME280;14738;42.668;23.250;2023-04-16T07:08:10;48354.56;;;-141.90;34.76
5298;BME280;14738;42.668;23.250;2023-04-16T07:10:36;48352.59;;;-141.90;34.96
5298;BME280;14738;42.668;23.250;2023-04-16T07:13:02;48358.53;;;-141.90;35.53
5298;BME280;14738;42.668;23.250;2023-04-16T07:15:28;48378.38;;;-141.90;34.13
5298;BME280;14738;42.668;23.250;2023-04-16T07:17:53;48374.41;;;-141.90;34.48
5298;BME280;14738;42.668;23.250;2023-04-16T07:20:19;48372.44;;;-141.90;33.35
5298;BME280;14738;42.668;23.250;2023-04-16T07:22:45;48360.53;;;-141.90;33.84
5298;BME280;14738;42.668;23.250;2023-04-16T07:25:10;48368.47;;;-141.90;34.55
5298;BME280;14738;42.668;23.250;2023-04-16T07:27:36;48326.78;;;-141.90;34.56
5298;BME280;14738;42.668;23.250;2023-04-16T07:30:01;48354.56;;;-141.90;34.78
5298;BME280;14738;42.668;23.250;2023-04-16T07:32:27;48372.44;;;-141.90;34.50
5298;BME280;14738;42.668;23.250;2023-04-16T07:34:52;48384.34;;;-141.90;34.60
5298;BME280;14738;42.668;23.250;2023-04-16T07:37:17;48374.41;;;-141.90;33.86
5298;BME280;14738;42.668;23.250;2023-04-16T07:39:43;48394.28;;;-141.90;33.55
5298;BME280;14738;42.668;23.250;2023-04-16T07:42:08;48354.56;;;-141.90;32.75
5298;BME280;14738;42.668;23.250;2023-04-16T07:44:34;48372.44;;;-141.90;33.44
5298;BME280;14738;42.668;23.250;2023-04-16T07:46:59;48382.34;;;-141.90;33.51
5298;BME280;14738;42.668;23.250;2023-04-16T07:49:24;48390.31;;;-141.90;32.88
5298;BME280;14738;42.668;23.250;2023-04-16T07:51:50;48392.28;;;-141.90;32.42
5298;BME280;14738;42.668;23.250;2023-04-16T07:54:15;48354.56;;;-141.90;32.42
5298;BME280;14738;42.668;23.250;2023-04-16T07:56:41;48372.44;;;-141.90;32.09
5298;BME280;14738;42.668;23.250;2023-04-16T07:59:06;48362.50;;;-141.90;31.42
5298;BME280;14738;42.668;23.250;2023-04-16T08:01:31;48408.16;;;-141.90;31.75
5298;BME280;14738;42.668;23.250;2023-04-16T08:03:57;48356.56;;;-141.90;30.62
5298;BME280;14738;42.668;23.250;2023-04-16T08:06:23;48366.47;;;-141.90;30.79
5298;BME280;14738;42.668;23.250;2023-04-16T08:08:48;48378.38;;;-141.90;30.24
5298;BME280;14738;42.668;23.250;2023-04-16T08:11:14;48402.22;;;-141.90;30.00
5298;BME280;14738;42.668;23.250;2023-04-16T08:13:39;48394.28;;;-141.90;30.93
5298;BME280;14738;42.668;23.250;2023-04-16T08:16:05;48378.38;;;-141.90;29.89
5298;BME280;14738;42.668;23.250;2023-04-16T08:18:31;48354.56;;;-141.90;29.88
5298;BME280;14738;42.668;23.250;2023-04-16T08:20:56;48368.47;;;-141.90;30.14
5298;BME280;14738;42.668;23.250;2023-04-16T08:23:22;48350.59;;;-141.90;30.52
5298;BME280;14738;42.668;23.250;2023-04-16T08:25:47;48374.41;;;-141.90;30.45
5298;BME280;14738;42.668;23.250;2023-04-16T08:28:12;48364.50;;;-141.90;31.44
5298;BME280;14738;42.668;23.250;2023-04-16T08:30:38;48350.59;;;-141.90;31.17
5298;BME280;14738;42.668;23.250;2023-04-16T08:33:03;48362.50;;;-141.90;30.52
5298;BME280;14738;42.668;23.250;2023-04-16T08:35:29;48374.41;;;-141.90;30.08
5298;BME280;14738;42.668;23.250;2023-04-16T08:37:55;48433.97;;;-141.90;30.32
5298;BME280;14738;42.668;23.250;2023-04-16T08:40:24;48400.22;;;-141.90;30.02
5298;BME280;14738;42.668;23.250;2023-04-16T08:42:54;48418.09;;;-141.90;29.94
5298;BME280;14738;42.668;23.250;2023-04-16T08:45:25;48386.34;;;-141.90;30.40
5298;BME280;14738;42.668;23.250;2023-04-16T08:47:51;48386.34;;;-141.90;30.06
5298;BME280;14738;42.668;23.250;2023-04-16T08:50:21;48418.09;;;-141.90;29.94
5298;BME280;14738;42.668;23.250;2023-04-16T08:52:58;48406.19;;;-141.90;28.63
5298;BME280;14738;42.668;23.250;2023-04-16T08:55:35;48408.16;;;-141.90;27.71
5298;BME280;14738;42.668;23.250;2023-04-16T08:58:05;48384.34;;;-141.90;28.45
5298;BME280;14738;42.668;23.250;2023-04-16T09:00:32;48406.19;;;-141.90;28.79
5298;BME280;14738;42.668;23.250;2023-04-16T09:02:58;48394.28;;;-141.90;29.07
5298;BME280;14738;42.668;23.250;2023-04-16T09:05:26;48378.38;;;-141.90;29.76
5298;BME280;14738;42.668;23.250;2023-04-16T09:07:52;48374.41;;;-141.90;29.80
5298;BME280;14738;42.668;23.250;2023-04-16T09:10:18;48390.31;;;-141.90;30.28
5298;BME280;14738;42.668;23.250;2023-04-16T09:12:44;48376.41;;;-141.90;31.42
5298;BME280;14738;42.668;23.250;2023-04-16T09:15:11;48386.34;;;-141.90;31.32
5298;BME280;14738;42.668;23.250;2023-04-16T09:17:37;48374.41;;;-141.90;30.96
5298;BME280;14738;42.668;23.250;2023-04-16T09:20:07;48402.22;;;-141.90;30.54
5298;BME280;14738;42.668;23.250;2023-04-16T09:22:36;48394.28;;;-141.90;30.98
5298;BME280;14738;42.668;23.250;2023-04-16T09:25:02;48380.38;;;-141.90;31.98
5298;BME280;14738;42.668;23.250;2023-04-16T09:27:29;48372.44;;;-141.90;31.11
5298;BME280;14738;42.668;23.250;2023-04-16T09:29:54;48412.13;;;-141.90;30.48
5298;BME280;14738;42.668;23.250;2023-04-16T09:32:24;48354.56;;;-141.90;30.25
5298;BME280;14738;42.668;23.250;2023-04-16T09:34:58;48410.16;;;-141.90;30.53
5298;BME280;14738;42.668;23.250;2023-04-16T09:37:26;48414.13;;;-141.90;29.40
5298;BME280;14738;42.668;23.250;2023-04-16T09:39:57;48386.34;;;-141.90;29.06
5298;BME280;14738;42.668;23.250;2023-04-16T09:42:24;48410.16;;;-141.90;30.01
5298;BME280;14738;42.668;23.250;2023-04-16T09:44:51;48362.50;;;-141.90;29.21
5298;BME280;14738;42.668;23.250;2023-04-16T09:47:17;48406.19;;;-141.90;29.02
5298;BME280;14738;42.668;23.250;2023-04-16T09:49:43;48392.28;;;-141.90;29.03
5298;BME280;14738;42.668;23.250;2023-04-16T09:52:13;48394.28;;;-141.90;29.34
5298;BME280;14738;42.668;23.250;2023-04-16T09:54:49;48376.41;;;-141.90;29.14
5298;BME280;14738;42.668;23.250;2023-04-16T09:57:22;48394.28;;;-141.90;30.59
5298;BME280;14738;42.668;23.250;2023-04-16T09:59:52;48426.03;;;-141.90;29.06
5298;BME280;14738;42.668;23.250;2023-04-16T10:02:17;48392.28;;;-141.90;28.24
5298;BME280;14738;42.668;23.250;2023-04-16T10:04:51;48402.22;;;-141.90;28.75
5298;BME280;14738;42.668;23.250;2023-04-16T10:07:17;48398.25;;;-141.90;27.54
5298;BME280;14738;42.668;23.250;2023-04-16T10:09:43;48406.19;;;-141.90;27.76
5298;BME280;14738;42.668;23.250;2023-04-16T10:12:09;48410.16;;;-141.90;26.24
5298;BME280;14738;42.668;23.250;2023-04-16T10:14:37;48402.22;;;-141.90;26.99
5298;BME280;14738;42.668;23.250;2023-04-16T10:17:03;48437.94;;;-141.90;26.90
5298;BME280;14738;42.668;23.250;2023-04-16T10:19:30;48422.06;;;-141.90;27.15
5298;BME280;14738;42.668;23.250;2023-04-16T10:21:57;48410.16;;;-141.90;27.32
5298;BME280;14738;42.668;23.250;2023-04-16T10:24:23;48420.09;;;-141.90;27.22
5298;BME280;14738;42.668;23.250;2023-04-16T10:26:51;48406.19;;;-141.90;27.70
5298;BME280;14738;42.668;23.250;2023-04-16T10:29:17;48390.31;;;-141.90;27.05
5298;BME280;14738;42.668;23.250;2023-04-16T10:31:44;48424.06;;;-141.90;27.04
5298;BME280;14738;42.668;23.250;2023-04-16T10:34:10;48394.28;;;-141.90;27.40
5298;BME280;14738;42.668;23.250;2023-04-16T10:36:37;48372.44;;;-141.90;28.55
5298;BME280;14738;42.668;23.250;2023-04-16T10:39:03;48408.16;;;-141.90;28.05
5298;BME280;14738;42.668;23.250;2023-04-16T10:41:31;48398.25;;;-141.90;28.28
5298;BME280;14738;42.668;23.250;2023-04-16T10:44:22;48398.25;;;-141.90;28.28
5298;BME280;14738;42.668;23.250;2023-04-16T10:46:48;48394.28;;;-141.90;27.85
5298;BME280;14738;42.668;23.250;2023-04-16T10:49:16;48437.94;;;-141.90;28.03
5298;BME280;14738;42.668;23.250;2023-04-16T10:56:44;48435.97;;;-141.90;26.74
5298;BME280;14738;42.668;23.250;2023-04-16T10:59:10;48410.16;;;-141.90;27.20
5298;BME280;14738;42.668;23.250;2023-04-16T11:01:40;48412.13;;;-141.90;27.10
5298;BME280;14738;42.668;23.250;2023-04-16T11:14:46;48416.09;;;-141.90;26.80
5298;BME280;14738;42.668;23.250;2023-04-16T11:17:12;48410.16;;;-141.90;27.08
5298;BME280;14738;42.668;23.250;2023-04-16T11:19:37;48418.09;;;-141.90;28.41
5298;BME280;14738;42.668;23.250;2023-04-16T11:22:03;48430.00;;;-141.90;27.80
5298;BME280;14738;42.668;23.250;2023-04-16T11:24:30;48414.13;;;-141.90;27.97
5298;BME280;14738;42.668;23.250;2023-04-16T11:26:55;48418.09;;;-141.90;27.46
5298;BME280;14738;42.668;23.250;2023-04-16T11:29:21;48422.06;;;-141.90;27.45
5298;BME280;14738;42.668;23.250;2023-04-16T11:31:50;48420.09;;;-141.90;28.63
5298;BME280;14738;42.668;23.250;2023-04-16T11:34:17;48453.81;;;-141.90;26.93
5298;BME280;14738;42.668;23.250;2023-04-16T11:36:47;48410.16;;;-141.90;27.07
5298;BME280;14738;42.668;23.250;2023-04-16T11:39:13;48414.13;;;-141.90;28.45
5298;BME280;14738;42.668;23.250;2023-04-16T11:41:45;48451.84;;;-141.90;28.06
5298;BME280;14738;42.668;23.250;2023-04-16T11:44:18;48428.03;;;-141.90;27.09
5298;BME280;14738;42.668;23.250;2023-04-16T11:46:44;48418.09;;;-141.90;27.07
5298;BME280;14738;42.668;23.250;2023-04-16T11:49:10;48455.81;;;-141.90;27.07
5298;BME280;14738;42.668;23.250;2023-04-16T11:51:39;48422.06;;;-141.90;27.46
5298;BME280;14738;42.668;23.250;2023-04-16T11:54:05;48449.84;;;-141.90;27.34
5298;BME280;14738;42.668;23.250;2023-04-16T11:56:33;48422.06;;;-141.90;27.77
5298;BME280;14738;42.668;23.250;2023-04-16T11:59:16;48463.75;;;-141.90;27.92
5298;BME280;14738;42.668;23.250;2023-04-16T12:01:52;48449.84;;;-141.90;28.30
5298;BME280;14738;42.668;23.250;2023-04-16T12:04:19;48453.81;;;-141.90;26.61
5298;BME280;14738;42.668;23.250;2023-04-16T12:07:12;48451.84;;;-141.90;26.50
5298;BME280;14738;42.668;23.250;2023-04-16T12:09:40;48441.91;;;-141.90;26.33
5298;BME280;14738;42.668;23.250;2023-04-16T12:12:24;48449.84;;;-141.90;26.20
5298;BME280;14738;42.668;23.250;2023-04-16T12:14:50;48445.88;;;-141.90;26.51
5298;BME280;14738;42.668;23.250;2023-04-16T12:17:19;48477.66;;;-141.90;26.18
5298;BME280;14738;42.668;23.250;2023-04-16T12:19:55;48451.84;;;-141.90;26.29
5298;BME280;14738;42.668;23.250;2023-04-16T12:22:31;48457.81;;;-141.90;26.90
5298;BME280;14738;42.668;23.250;2023-04-16T12:25:20;48443.91;;;-141.90;26.49
5298;BME280;14738;42.668;23.250;2023-04-16T12:27:53;48437.94;;;-141.90;26.33
5298;BME280;14738;42.668;23.250;2023-04-16T12:30:21;48455.81;;;-141.90;25.77
5298;BME280;14738;42.668;23.250;2023-04-16T12:32:48;48445.88;;;-141.90;25.89
5298;BME280;14738;42.668;23.250;2023-04-16T12:35:28;48473.69;;;-141.90;26.97
5298;BME280;14738;42.668;23.250;2023-04-16T12:37:54;48461.78;;;-141.90;27.52
5298;BME280;14738;42.668;23.250;2023-04-16T12:40:20;48467.72;;;-141.90;25.83
5298;BME280;14738;42.668;23.250;2023-04-16T12:42:45;48457.81;;;-141.90;26.16
5298;BME280;14738;42.668;23.250;2023-04-16T12:45:10;48485.59;;;-141.90;27.62
5298;BME280;14738;42.668;23.250;2023-04-16T12:47:36;48441.91;;;-141.90;28.00
5298;BME280;14738;42.668;23.250;2023-04-16T12:50:01;48445.88;;;-141.90;27.66
5298;BME280;14738;42.668;23.250;2023-04-16T12:52:27;48422.06;;;-141.90;27.58